Time;durP1;ratioP1;P1;durP2;ratioP2;P2;SDS_P1;SDS_P2;PMS_P1;PMS_P2;Temp;Humidity;BMP_temperature;BMP_pressure;BME280_temperature;BME280_humidity;BME280_pressure;Samples;Min_cycle;Max_cycle;Signal;HPM_P1;HPM_P2
2023/02/20 00:00:33;;;;;;;13.90;8.68;;;;;;;10.84;100.00;101906.66;2089348;28;20040;-73
2023/02/20 00:01:57;;;;;;;17.77;9.65;;;;;;;10.76;100.00;101909.03;2084028;28;20045;-73
2023/02/20 00:03:18;;;;;;;16.77;8.90;;;;;;;10.71;100.00;101907.09;2096202;28;20063;-74
2023/02/20 00:04:41;;;;;;;16.08;8.85;;;;;;;10.64;100.00;101905.09;2108742;28;20059;-74
2023/02/20 00:06:03;;;;;;;15.88;8.43;;;;;;;10.59;100.00;101901.41;2095679;28;20036;-73
2023/02/20 00:07:27;;;;;;;17.23;8.65;;;;;;;10.54;100.00;101898.63;2098294;28;20056;-73
2023/02/20 00:08:48;;;;;;;15.82;8.80;;;;;;;10.52;100.00;101899.41;2102587;28;20393;-73
2023/02/20 00:10:11;;;;;;;18.27;10.52;;;;;;;10.49;100.00;101892.31;2101336;28;20043;-74
2023/02/20 00:11:34;;;;;;;18.00;9.57;;;;;;;10.48;100.00;101894.88;2101983;28;20400;-73
2023/02/20 00:12:56;;;;;;;14.60;8.55;;;;;;;10.47;100.00;101901.00;2094309;28;20496;-74
2023/02/20 00:14:19;;;;;;;18.20;9.23;;;;;;;10.45;100.00;101900.94;2102420;28;20044;-73
2023/02/20 00:15:41;;;;;;;16.40;8.82;;;;;;;10.44;100.00;101899.13;2093074;28;20048;-74
2023/02/20 00:17:03;;;;;;;16.88;9.02;;;;;;;10.41;100.00;101900.78;2085579;28;20045;-73
2023/02/20 00:18:25;;;;;;;26.02;16.02;;;;;;;10.39;100.00;101904.28;2102630;28;20039;-74
2023/02/20 00:19:47;;;;;;;20.13;11.23;;;;;;;10.38;100.00;101901.56;2092410;28;20461;-74
2023/02/20 00:21:09;;;;;;;15.50;9.30;;;;;;;10.36;100.00;101909.47;2090897;28;20474;-73
2023/02/20 00:22:32;;;;;;;16.35;9.65;;;;;;;10.35;100.00;101909.41;2091179;28;20037;-74
2023/02/20 00:23:54;;;;;;;15.07;9.27;;;;;;;10.32;100.00;101904.91;2091865;28;20068;-74
2023/02/20 00:25:17;;;;;;;13.95;8.70;;;;;;;10.29;100.00;101898.63;2091251;28;20383;-74
2023/02/20 00:26:45;;;;;;;14.38;8.63;;;;;;;10.27;100.00;101897.69;2093954;28;20049;-74
2023/02/20 00:28:07;;;;;;;18.17;8.98;;;;;;;10.23;100.00;101894.03;2095121;28;20036;-73
2023/02/20 00:29:29;;;;;;;17.38;8.30;;;;;;;10.21;100.00;101901.00;2094028;28;20045;-74
2023/02/20 00:30:50;;;;;;;14.07;7.88;;;;;;;10.18;100.00;101898.25;2086066;28;20045;-74
2023/02/20 00:32:13;;;;;;;14.35;8.40;;;;;;;10.15;100.00;101897.22;2091500;28;20086;-73
2023/02/20 00:33:35;;;;;;;17.77;8.32;;;;;;;10.13;100.00;101898.88;2085869;28;20409;-73
2023/02/20 00:34:57;;;;;;;13.60;8.18;;;;;;;10.10;100.00;101907.63;2091663;28;20052;-74
2023/02/20 00:36:20;;;;;;;14.82;8.32;;;;;;;10.07;100.00;101907.50;2102507;28;20042;-73
2023/02/20 00:37:45;;;;;;;13.55;7.75;;;;;;;10.05;100.00;101910.91;2091796;28;20400;-73
2023/02/20 00:39:08;;;;;;;14.48;8.82;;;;;;;10.02;100.00;101908.16;2093407;28;20113;-74
2023/02/20 00:40:30;;;;;;;15.63;8.70;;;;;;;9.99;100.00;101915.13;2100059;28;20073;-73
2023/02/20 00:41:51;;;;;;;14.50;8.80;;;;;;;9.98;100.00;101910.69;2094037;28;20044;-74
2023/02/20 00:43:14;;;;;;;21.42;10.50;;;;;;;9.98;100.00;101905.41;2099880;28;20052;-75
2023/02/20 00:44:36;;;;;;;17.52;10.70;;;;;;;10.00;100.00;101910.75;2102467;28;20551;-74
2023/02/20 00:45:58;;;;;;;28.52;19.15;;;;;;;10.00;100.00;101906.38;2096519;28;20579;-73
2023/02/20 00:47:20;;;;;;;15.18;8.35;;;;;;;10.03;100.00;101909.97;2096485;28;20063;-73
2023/02/20 00:48:42;;;;;;;14.65;8.57;;;;;;;10.04;100.00;101906.50;2093917;28;20048;-74
2023/02/20 00:50:23;;;;;;;17.58;10.73;;;;;;;10.05;100.00;101911.81;2096435;28;20044;-73
2023/02/20 00:51:45;;;;;;;13.45;9.45;;;;;;;10.09;100.00;101908.44;2080333;28;20049;-74
2023/02/20 00:53:10;;;;;;;13.32;9.05;;;;;;;10.14;100.00;101908.59;2079286;28;20120;-74
2023/02/20 00:54:31;;;;;;;16.25;9.90;;;;;;;10.15;100.00;101902.50;2091165;28;20123;-74
2023/02/20 00:55:53;;;;;;;18.00;10.50;;;;;;;10.15;100.00;101906.03;2080200;28;20041;-75
2023/02/20 00:57:15;;;;;;;17.13;8.40;;;;;;;10.15;100.00;101903.38;2087096;28;20396;-74
2023/02/20 00:58:37;;;;;;;21.00;9.15;;;;;;;10.14;100.00;101904.22;2092813;28;20126;-74
2023/02/20 00:59:59;;;;;;;12.38;7.80;;;;;;;10.12;100.00;101900.63;2081045;28;20053;-74
2023/02/20 01:01:21;;;;;;;12.68;7.70;;;;;;;10.12;100.00;101897.09;2082695;28;20455;-74
2023/02/20 01:02:44;;;;;;;15.43;8.40;;;;;;;10.11;100.00;101893.56;2085683;28;20056;-75
2023/02/20 01:04:07;;;;;;;13.50;7.85;;;;;;;10.13;100.00;101904.16;2083047;28;20099;-74
2023/02/20 01:05:30;;;;;;;16.02;8.15;;;;;;;10.14;100.00;101898.06;2082544;28;20052;-74
2023/02/20 01:06:52;;;;;;;17.00;9.40;;;;;;;10.16;100.00;101896.38;2091015;28;20519;-74
2023/02/20 01:08:15;;;;;;;14.95;9.15;;;;;;;10.20;100.00;101903.56;2077353;28;20094;-73
2023/02/20 01:09:37;;;;;;;16.38;8.90;;;;;;;10.23;100.00;101898.44;2082882;28;20056;-74
2023/02/20 01:10:59;;;;;;;16.17;9.45;;;;;;;10.25;100.00;101902.00;2077241;28;20048;-75
2023/02/20 01:12:22;;;;;;;14.90;9.55;;;;;;;10.29;100.00;101888.06;2083024;28;20045;-74
2023/02/20 01:13:43;;;;;;;16.05;9.50;;;;;;;10.34;100.00;101894.41;2077298;28;20065;-73
2023/02/20 01:15:08;;;;;;;14.40;8.18;;;;;;;10.41;100.00;101890.25;2076859;28;20048;-73
2023/02/20 01:16:30;;;;;;;13.13;7.80;;;;;;;10.46;100.00;101883.38;2067664;28;20084;-74
2023/02/20 01:17:52;;;;;;;16.20;8.25;;;;;;;10.51;100.00;101879.13;2082768;28;20056;-74
2023/02/20 01:19:15;;;;;;;13.65;8.30;;;;;;;10.54;100.00;101876.59;2089266;28;20048;-74
2023/02/20 01:20:36;;;;;;;14.00;7.57;;;;;;;10.57;100.00;101884.63;2080629;28;20077;-74
2023/02/20 01:21:59;;;;;;;13.18;8.20;;;;;;;10.60;100.00;101877.72;2090714;28;20631;-74
2023/02/20 01:23:22;;;;;;;12.82;7.72;;;;;;;10.64;100.00;101874.31;2087905;28;20037;-74
2023/02/20 01:24:45;;;;;;;17.05;7.90;;;;;;;10.67;100.00;101878.81;2077620;28;20053;-74
2023/02/20 01:26:07;;;;;;;17.35;8.75;;;;;;;10.70;100.00;101874.50;2085035;28;20072;-74
2023/02/20 01:27:29;;;;;;;14.48;9.25;;;;;;;10.74;100.00;101878.16;2083066;28;20136;-74
2023/02/20 01:28:50;;;;;;;12.85;8.43;;;;;;;10.78;100.00;101869.47;2077320;28;20145;-74
2023/02/20 01:30:13;;;;;;;13.13;8.35;;;;;;;10.82;100.00;101866.13;2086629;28;20456;-74
2023/02/20 01:31:34;;;;;;;14.80;8.25;;;;;;;10.86;100.00;101865.34;2092766;28;20053;-75
2023/02/20 01:32:57;;;;;;;13.52;7.80;;;;;;;10.89;100.00;101861.94;2093763;28;20043;-74
2023/02/20 01:34:20;;;;;;;13.95;7.30;;;;;;;10.93;100.00;101863.81;2082412;28;20086;-74
2023/02/20 01:35:42;;;;;;;12.98;7.90;;;;;;;10.96;100.00;101870.06;2082968;28;20044;-74
2023/02/20 01:37:04;;;;;;;13.85;7.60;;;;;;;10.99;100.00;101869.28;2084821;28;20068;-74
2023/02/20 01:38:28;;;;;;;13.23;7.68;;;;;;;10.99;100.00;101862.25;2093753;28;20045;-75
2023/02/20 01:39:50;;;;;;;13.93;7.10;;;;;;;11.01;100.00;101864.94;2080097;28;20089;-74
2023/02/20 01:41:13;;;;;;;11.40;6.68;;;;;;;11.02;100.00;101864.09;2077347;28;20053;-74
2023/02/20 01:42:35;;;;;;;12.00;7.13;;;;;;;11.02;100.00;101859.72;2086300;28;20171;-74
2023/02/20 01:43:58;;;;;;;11.60;7.55;;;;;;;11.03;100.00;101850.03;2081898;28;20050;-74
2023/02/20 01:45:32;;;;;;;11.80;7.47;;;;;;;11.02;100.00;101848.25;2089723;28;20045;-74
2023/02/20 01:46:55;;;;;;;14.43;9.05;;;;;;;11.04;100.00;101851.81;2095427;28;20049;-74
2023/02/20 01:48:20;;;;;;;14.90;7.88;;;;;;;11.05;100.00;101846.59;2085579;28;20033;-74
2023/02/20 01:49:49;;;;;;;12.02;7.10;;;;;;;11.06;100.00;101853.66;2095850;28;20105;-74
2023/02/20 01:51:11;;;;;;;14.73;8.65;;;;;;;11.07;100.00;101851.94;2094104;28;20044;-74
2023/02/20 01:52:37;;;;;;;12.48;6.97;;;;;;;11.08;100.00;101849.34;2093588;28;20078;-74
2023/02/20 01:54:01;;;;;;;10.75;6.53;;;;;;;11.09;100.00;101845.81;2099512;28;20074;-74
2023/02/20 01:55:28;;;;;;;11.07;6.50;;;;;;;11.10;100.00;101847.63;2092764;28;20091;-74
2023/02/20 01:56:51;;;;;;;12.40;6.35;;;;;;;11.10;100.00;101839.69;2083678;28;20457;-74
2023/02/20 01:58:19;;;;;;;15.00;6.95;;;;;;;11.13;100.00;101842.44;2086560;28;20040;-74
2023/02/20 01:59:43;;;;;;;13.23;7.45;;;;;;;11.15;100.00;101834.56;2084389;28;20462;-74
2023/02/20 02:01:06;;;;;;;15.40;7.25;;;;;;;11.16;100.00;101839.88;2090111;28;20047;-73
2023/02/20 02:02:29;;;;;;;11.20;7.20;;;;;;;11.17;100.00;101844.31;2092521;28;20037;-74
2023/02/20 02:03:59;;;;;;;10.88;7.00;;;;;;;11.18;100.00;101840.81;2091310;28;20049;-74
2023/02/20 02:05:23;;;;;;;13.15;6.43;;;;;;;11.20;100.00;101838.25;2086182;28;20046;-74
2023/02/20 02:06:51;;;;;;;15.82;7.20;;;;;;;11.21;100.00;101845.31;2092462;28;20481;-73
2023/02/20 02:08:16;;;;;;;12.23;7.70;;;;;;;11.24;100.00;101842.75;2091351;28;20037;-74
2023/02/20 02:09:44;;;;;;;10.27;6.13;;;;;;;11.24;100.00;101839.22;2094085;28;20488;-76
2023/02/20 02:11:10;;;;;;;10.98;6.75;;;;;;;11.23;100.00;101832.13;2092238;28;20049;-73
2023/02/20 02:12:32;;;;;;;9.50;6.38;;;;;;;11.20;100.00;101838.25;2100540;28;20443;-73
2023/02/20 02:13:53;;;;;;;10.57;6.47;;;;;;;11.17;100.00;101835.50;2101938;28;20048;-73
2023/02/20 02:15:22;;;;;;;11.20;7.28;;;;;;;11.14;100.00;101833.66;2091941;28;20067;-73
2023/02/20 02:16:54;;;;;;;12.55;6.93;;;;;;;11.16;100.00;101831.94;2091353;28;20052;-74
2023/02/20 02:18:34;;;;;;;9.32;6.25;;;;;;;11.14;100.00;101833.66;2094818;28;20131;-74
2023/02/20 02:20:28;;;;;;;12.00;6.80;;;;;;;11.13;100.00;101836.25;2102241;28;20043;-73
2023/02/20 02:22:43;;;;;;;14.27;7.03;;;;;;;11.13;100.00;101836.25;2078896;28;20109;-74
2023/02/20 02:24:40;;;;;;;11.75;6.63;;;;;;;11.14;100.00;101835.41;2061598;28;20140;-73
2023/02/20 02:26:22;;;;;;;10.68;5.97;;;;;;;11.16;100.00;101834.59;2087891;28;20047;-73
2023/02/20 02:28:15;;;;;;;10.90;6.65;;;;;;;11.18;100.00;101835.53;2103675;28;20040;-74
2023/02/20 02:29:57;;;;;;;11.68;8.38;;;;;;;11.19;100.00;101832.06;2098062;28;20052;-74
2023/02/20 02:31:49;;;;;;;13.38;7.38;;;;;;;11.23;100.00;101834.78;2097799;28;20048;-74
2023/02/20 02:33:34;;;;;;;15.35;7.07;;;;;;;11.24;100.00;101829.53;2095486;28;20044;-74
2023/02/20 02:35:31;;;;;;;11.55;6.80;;;;;;;11.29;100.00;101830.56;2093399;28;20037;-74
2023/02/20 02:37:03;;;;;;;13.98;7.72;;;;;;;11.34;100.00;101826.34;2097288;28;20085;-74
2023/02/20 02:38:31;;;;;;;14.65;8.20;;;;;;;11.38;100.00;101822.03;2102672;28;20048;-74
2023/02/20 02:40:00;;;;;;;15.38;7.45;;;;;;;11.40;100.00;101823.88;2093827;28;20139;-74
2023/02/20 02:41:30;;;;;;;12.88;7.47;;;;;;;11.43;100.00;101817.75;2094217;28;20515;-74
2023/02/20 02:43:01;;;;;;;13.00;7.40;;;;;;;11.46;100.00;101818.75;2096110;28;20049;-74
2023/02/20 02:44:30;;;;;;;17.83;7.88;;;;;;;11.50;100.00;101823.28;2095161;28;20075;-74
2023/02/20 02:45:56;;;;;;;11.57;7.57;;;;;;;11.52;100.00;101820.69;2101892;28;20044;-74
2023/02/20 02:47:24;;;;;;;12.57;6.82;;;;;;;11.54;100.00;101814.59;2093774;28;20063;-74
2023/02/20 02:48:52;;;;;;;14.10;8.73;;;;;;;11.57;100.00;101821.69;2095990;28;20063;-74
2023/02/20 02:50:20;;;;;;;12.75;6.80;;;;;;;11.58;100.00;101815.56;2093245;28;20098;-73
2023/02/20 02:51:44;;;;;;;11.25;6.78;;;;;;;11.58;100.00;101816.47;2103036;28;20381;-74
2023/02/20 02:53:11;;;;;;;12.73;6.53;;;;;;;11.61;100.00;101820.94;2089068;28;20068;-74
2023/02/20 02:54:32;;;;;;;10.95;7.00;;;;;;;11.62;100.00;101825.34;2089972;28;20098;-74
2023/02/20 02:55:54;;;;;;;14.05;6.47;;;;;;;11.64;100.00;101825.41;2091378;28;20049;-74
2023/02/20 02:57:20;;;;;;;11.18;6.63;;;;;;;11.66;100.00;101829.91;2086167;28;21362;-74
2023/02/20 02:58:42;;;;;;;11.25;6.07;;;;;;;11.68;100.00;101822.03;2088297;28;20049;-74
2023/02/20 03:00:09;;;;;;;12.23;6.15;;;;;;;11.67;100.00;101818.47;2091507;28;20694;-74
2023/02/20 03:01:33;;;;;;;11.60;6.22;;;;;;;11.67;100.00;101817.56;2089143;28;20076;-74
2023/02/20 03:03:01;;;;;;;11.10;6.30;;;;;;;11.66;100.00;101821.97;2097437;28;20143;-74
2023/02/20 03:04:25;;;;;;;9.77;5.70;;;;;;;11.65;100.00;101820.19;2095739;28;20094;-74
2023/02/20 03:05:54;;;;;;;10.75;6.13;;;;;;;11.64;100.00;101813.09;2101138;28;20044;-74
2023/02/20 03:07:18;;;;;;;12.40;7.03;;;;;;;11.64;100.00;101815.72;2102739;28;20062;-74
2023/02/20 03:08:45;;;;;;;9.82;5.72;;;;;;;11.65;100.00;101816.63;2100729;28;20052;-74
2023/02/20 03:10:15;;;;;;;10.95;6.32;;;;;;;11.66;100.00;101818.44;2095311;28;20421;-74
2023/02/20 03:11:43;;;;;;;15.38;8.15;;;;;;;11.64;100.00;101817.47;2093135;28;20048;-74
2023/02/20 03:13:05;;;;;;;11.75;7.47;;;;;;;11.64;100.00;101822.75;2083289;28;20140;-74
2023/02/20 03:16:19;;;;;;;13.15;6.60;;;;;;;11.63;100.00;101811.28;2097376;28;20063;-74
2023/02/20 03:17:45;;;;;;;12.77;7.38;;;;;;;11.66;100.00;101816.69;2094951;28;20572;-74
2023/02/20 03:19:13;;;;;;;21.27;12.10;;;;;;;11.66;100.00;101813.13;2100467;28;20044;-74
2023/02/20 03:20:34;;;;;;;12.73;8.15;;;;;;;11.66;100.00;101807.84;2099927;28;20040;-74
2023/02/20 03:21:58;;;;;;;16.83;8.30;;;;;;;11.67;100.00;101805.25;2093648;28;20075;-74
2023/02/20 03:23:26;;;;;;;13.57;8.23;;;;;;;11.70;100.00;101800.03;2084426;28;20049;-74
2023/02/20 03:24:56;;;;;;;11.75;6.20;;;;;;;11.69;100.00;101806.16;2085249;28;20080;-74
2023/02/20 03:26:40;;;;;;;11.18;6.22;;;;;;;11.68;100.00;101808.78;2089332;28;20065;-74
2023/02/20 03:28:05;;;;;;;11.38;6.32;;;;;;;11.69;100.00;101807.91;2098625;28;20403;-74
2023/02/20 03:29:35;;;;;;;12.23;6.35;;;;;;;11.68;100.00;101815.00;2095436;28;20052;-74
2023/02/20 03:31:05;;;;;;;10.68;6.03;;;;;;;11.67;100.00;101807.91;2092172;28;20140;-74
2023/02/20 03:44:34;;;;;;;14.55;6.95;;;;;;;11.65;100.00;101820.19;2095121;28;20562;-74
2023/02/20 03:46:01;;;;;;;13.57;7.90;;;;;;;11.66;100.00;101819.31;2082942;28;20167;-74
2023/02/20 03:47:27;;;;;;;11.15;6.68;;;;;;;11.68;100.00;101825.56;2085144;28;20036;-74
2023/02/20 03:48:53;;;;;;;12.38;6.22;;;;;;;11.71;100.00;101828.28;2084715;28;20060;-74
2023/02/20 03:51:57;;;;;;;13.45;7.15;;;;;;;11.74;100.00;101831.06;2087756;28;20052;-74
2023/02/20 03:53:29;;;;;;;38.53;28.98;;;;;;;11.74;100.00;101825.78;2085434;28;20048;-74
2023/02/20 03:54:52;;;;;;;48.00;43.03;;;;;;;11.76;100.00;101837.25;2083734;28;20662;-74
2023/02/20 03:56:19;;;;;;;20.38;14.45;;;;;;;11.77;100.00;101831.13;2093406;28;20135;-74
2023/02/20 03:57:45;;;;;;;17.58;10.35;;;;;;;11.80;100.00;101832.97;2089221;28;20040;-74
2023/02/20 03:59:14;;;;;;;10.27;6.22;;;;;;;11.81;100.00;101832.13;2091527;28;20048;-74
2023/02/20 04:00:42;;;;;;;11.35;6.57;;;;;;;11.79;100.00;101831.19;2081405;28;20092;-74
2023/02/20 04:02:08;;;;;;;13.90;7.72;;;;;;;11.80;100.00;101828.59;2076861;28;20148;-74
2023/02/20 04:03:35;;;;;;;12.30;6.32;;;;;;;11.80;100.00;101832.97;2083082;28;20056;-74
2023/02/20 04:05:04;;;;;;;14.40;9.23;;;;;;;11.79;100.00;101824.13;2092478;28;20497;-74
2023/02/20 04:06:32;;;;;;;12.27;6.50;;;;;;;11.80;100.00;101830.34;2090267;28;20064;-74
2023/02/20 04:07:59;;;;;;;9.80;6.10;;;;;;;11.79;100.00;101829.44;2079553;28;20037;-74
2023/02/20 04:09:29;;;;;;;14.38;9.38;;;;;;;11.78;100.00;101830.28;2086151;28;20053;-74
2023/02/20 04:10:56;;;;;;;9.57;5.80;;;;;;;11.78;100.00;101832.03;2078061;28;20057;-74
2023/02/20 04:12:24;;;;;;;13.52;8.65;;;;;;;11.78;100.00;101834.66;2086856;28;20130;-74
2023/02/20 04:13:48;;;;;;;22.02;17.83;;;;;;;11.78;100.00;101826.72;2082787;28;20037;-74
2023/02/20 04:15:11;;;;;;;13.23;7.32;;;;;;;11.77;100.00;101832.88;2083011;28;20080;-74
2023/02/20 04:16:39;;;;;;;13.32;8.90;;;;;;;11.75;100.00;101834.59;2078194;28;20106;-74
2023/02/20 04:18:05;;;;;;;14.07;8.80;;;;;;;11.76;100.00;101836.38;2084190;28;20178;-74
2023/02/20 04:19:28;;;;;;;15.90;7.75;;;;;;;11.77;100.00;101841.72;2076188;28;20053;-74
2023/02/20 04:20:54;;;;;;;13.80;7.93;;;;;;;11.81;100.00;101846.25;2082106;28;20086;-74
2023/02/20 04:22:30;;;;;;;15.57;8.10;;;;;;;11.84;100.00;101842.78;2085733;28;20137;-74
2023/02/20 04:24:01;;;;;;;15.50;8.13;;;;;;;11.86;100.00;101849.91;2085383;28;20060;-74
2023/02/20 04:25:34;;;;;;;11.43;6.35;;;;;;;11.87;100.00;101842.88;2087191;28;20045;-74
2023/02/20 04:26:59;;;;;;;15.00;8.55;;;;;;;11.87;100.00;101846.41;2087489;28;20124;-74
2023/02/20 04:28:23;;;;;;;12.95;6.75;;;;;;;11.88;100.00;101848.19;2093334;28;20128;-74
2023/02/20 04:29:53;;;;;;;18.67;13.00;;;;;;;11.85;100.00;101849.88;2086072;28;21807;-74
2023/02/20 04:31:18;;;;;;;11.13;6.50;;;;;;;11.84;100.00;101850.72;2083453;28;20041;-74
2023/02/20 04:32:43;;;;;;;14.20;7.25;;;;;;;11.84;100.00;101851.63;2078206;28;20539;-74
2023/02/20 04:34:06;;;;;;;31.27;19.02;;;;;;;11.84;100.00;101851.63;2074991;28;20049;-74
2023/02/20 04:35:28;;;;;;;35.03;19.80;;;;;;;11.84;100.00;101858.66;2075109;28;20632;-75
2023/02/20 04:36:53;;;;;;;29.95;17.42;;;;;;;11.84;100.00;101850.72;2076072;28;20045;-74
2023/02/20 04:38:15;;;;;;;36.70;22.10;;;;;;;11.83;100.00;101859.50;2090219;28;20060;-74
2023/02/20 04:39:37;;;;;;;33.50;20.38;;;;;;;11.82;100.00;101852.41;2084438;28;20091;-74
2023/02/20 04:41:00;;;;;;;30.40;22.15;;;;;;;11.82;100.00;101848.00;2083394;28;20068;-74
2023/02/20 04:42:23;;;;;;;24.80;16.98;;;;;;;11.84;100.00;101862.19;2081836;28;20098;-74
2023/02/20 04:43:48;;;;;;;19.98;14.10;;;;;;;11.86;100.00;101855.22;2083604;28;20048;-75
2023/02/20 04:45:10;;;;;;;21.60;16.08;;;;;;;11.86;100.00;101860.50;2081239;28;20132;-74
2023/02/20 04:46:32;;;;;;;22.35;15.63;;;;;;;11.87;100.00;101861.41;2084344;28;20141;-75
2023/02/20 04:47:55;;;;;;;19.23;14.55;;;;;;;11.89;100.00;101872.91;2084649;28;20036;-74
2023/02/20 04:49:16;;;;;;;21.02;15.48;;;;;;;11.89;100.00;101860.56;2083492;28;20103;-75
2023/02/20 04:50:43;;;;;;;21.27;14.88;;;;;;;11.91;100.00;101864.16;2089585;28;20067;-74
2023/02/20 04:52:06;;;;;;;23.25;14.88;;;;;;;11.95;100.00;101863.38;2100569;28;20086;-75
2023/02/20 04:53:29;;;;;;;28.48;24.13;;;;;;;11.96;100.00;101867.81;2082805;28;20037;-75
2023/02/20 04:54:51;;;;;;;24.35;19.63;;;;;;;11.96;100.00;101862.53;2078462;28;20045;-75
2023/02/20 04:56:14;;;;;;;25.15;18.58;;;;;;;11.98;100.00;101866.13;2077534;28;20049;-74
2023/02/20 04:57:35;;;;;;;29.55;24.58;;;;;;;12.00;100.00;101863.53;2091500;28;20040;-75
2023/02/20 04:58:59;;;;;;;29.90;25.25;;;;;;;12.00;100.00;101874.13;2083594;28;20037;-75
2023/02/20 05:00:24;;;;;;;27.20;23.05;;;;;;;12.02;100.00;101860.91;2087129;28;20078;-75
2023/02/20 05:01:48;;;;;;;23.85;20.88;;;;;;;11.99;100.00;101861.72;2091925;28;20051;-75
2023/02/20 05:03:09;;;;;;;22.52;18.85;;;;;;;11.97;100.00;101869.63;2092475;28;21650;-74
2023/02/20 05:04:31;;;;;;;18.95;15.48;;;;;;;11.94;100.00;101863.38;2084745;28;20083;-74
2023/02/20 05:05:53;;;;;;;18.75;14.07;;;;;;;11.87;100.00;101867.59;2099580;28;20104;-74
2023/02/20 05:07:17;;;;;;;14.60;11.25;;;;;;;11.79;100.00;101866.47;2095395;28;20075;-74
2023/02/20 05:08:40;;;;;;;19.27;14.10;;;;;;;11.71;100.00;101869.69;2088496;28;20045;-74
2023/02/20 05:10:01;;;;;;;19.27;15.75;;;;;;;11.64;100.00;101867.72;2085691;28;20568;-75
2023/02/20 05:11:24;;;;;;;20.10;17.48;;;;;;;11.56;100.00;101872.78;2093836;28;20066;-74
2023/02/20 05:12:46;;;;;;;27.15;19.92;;;;;;;11.49;100.00;101873.47;2077479;28;20045;-73
2023/02/20 05:14:11;;;;;;;28.05;22.98;;;;;;;11.44;100.00;101875.06;2078581;28;20041;-73
2023/02/20 05:15:33;;;;;;;32.30;24.85;;;;;;;11.39;100.00;101879.34;2094847;28;20492;-74
2023/02/20 05:16:56;;;;;;;27.67;23.67;;;;;;;11.34;100.00;101881.84;2094003;28;20445;-73
2023/02/20 05:18:23;;;;;;;30.23;26.33;;;;;;;11.31;100.00;101883.50;2087100;28;20044;-74
2023/02/20 05:19:46;;;;;;;32.67;27.20;;;;;;;11.28;100.00;101883.41;2079033;28;20224;-73
2023/02/20 05:22:47;;;;;;;20.23;14.93;;;;;;;11.26;100.00;101887.75;2079909;28;20593;-73
2023/02/20 05:24:09;;;;;;;20.10;12.98;;;;;;;11.28;100.00;101878.13;2090728;28;20071;-73
2023/02/20 05:25:32;;;;;;;18.02;13.13;;;;;;;11.31;100.00;101883.50;2080299;28;20038;-74
2023/02/20 05:26:53;;;;;;;16.92;13.05;;;;;;;11.35;100.00;101885.41;2074892;28;20065;-74
2023/02/20 05:28:16;;;;;;;22.25;17.80;;;;;;;11.41;100.00;101885.59;2088512;28;20056;-74
2023/02/20 05:29:43;;;;;;;25.17;20.35;;;;;;;11.48;100.00;101882.28;2085872;28;20529;-75
2023/02/20 05:31:06;;;;;;;29.73;18.90;;;;;;;11.56;100.00;101880.72;2092656;28;20059;-75
2023/02/20 05:32:29;;;;;;;20.30;14.35;;;;;;;11.66;100.00;101882.81;2093588;28;20036;-74
2023/02/20 05:33:51;;;;;;;18.80;13.50;;;;;;;11.74;100.00;101883.97;2093949;28;20040;-74
2023/02/20 05:35:13;;;;;;;18.77;12.95;;;;;;;11.83;100.00;101875.38;2092588;28;20436;-75
2023/02/20 05:36:35;;;;;;;16.52;11.60;;;;;;;11.92;100.00;101878.28;2079717;28;20097;-74
2023/02/20 05:37:58;;;;;;;15.40;11.07;;;;;;;12.01;100.00;101883.84;2081048;28;20042;-74
2023/02/20 05:39:19;;;;;;;15.52;11.75;;;;;;;12.09;100.00;101889.31;2085553;28;20048;-74
2023/02/20 05:40:41;;;;;;;15.50;9.77;;;;;;;12.17;100.00;101893.97;2088035;28;20519;-74
2023/02/20 05:42:03;;;;;;;15.73;11.80;;;;;;;12.28;100.00;101896.91;2092770;28;20049;-74
2023/02/20 05:43:26;;;;;;;18.30;13.10;;;;;;;12.40;100.00;101899.91;2079856;28;20070;-74
2023/02/20 05:44:52;;;;;;;17.48;13.60;;;;;;;12.45;100.00;101906.22;2089797;28;20049;-74
2023/02/20 05:46:14;;;;;;;18.23;12.50;;;;;;;12.51;100.00;101911.69;2096198;28;20102;-74
2023/02/20 05:47:38;;;;;;;14.48;11.85;;;;;;;12.57;100.00;101909.19;2093241;28;20052;-74
2023/02/20 05:48:59;;;;;;;18.38;13.77;;;;;;;12.62;100.00;101909.28;2093461;28;20048;-74
2023/02/20 05:50:21;;;;;;;16.90;12.23;;;;;;;12.64;100.00;101908.50;2093689;28;20060;-75
2023/02/20 05:51:44;;;;;;;20.30;14.70;;;;;;;12.68;100.00;101913.00;2090008;28;20056;-74
2023/02/20 05:53:06;;;;;;;33.85;24.58;;;;;;;12.70;100.00;101913.03;2097583;28;20048;-74
2023/02/20 05:54:29;;;;;;;42.35;29.33;;;;;;;12.71;100.00;101917.47;2101184;28;20048;-75
2023/02/20 05:55:50;;;;;;;39.72;26.42;;;;;;;12.71;100.00;101914.84;2087948;28;20045;-75
2023/02/20 05:57:13;;;;;;;41.03;23.45;;;;;;;12.69;100.00;101911.25;2085210;28;20507;-74
2023/02/20 05:58:34;;;;;;;34.17;21.50;;;;;;;12.70;100.00;101913.94;2097600;28;20077;-73
2023/02/20 05:59:59;;;;;;;26.38;17.92;;;;;;;12.73;100.00;101905.19;2091824;28;20047;-73
2023/02/20 06:01:22;;;;;;;21.20;13.18;;;;;;;12.72;100.00;101904.28;2093057;28;20049;-74
2023/02/20 06:02:44;;;;;;;23.13;13.27;;;;;;;12.74;100.00;101901.66;2090661;28;20076;-74
2023/02/20 06:04:06;;;;;;;17.60;10.23;;;;;;;12.75;100.00;101908.75;2090987;28;20060;-74
2023/02/20 06:05:30;;;;;;;19.88;11.05;;;;;;;12.77;100.00;101910.59;2099579;28;20044;-74
2023/02/20 06:06:51;;;;;;;15.80;9.70;;;;;;;12.79;100.00;101910.63;2103512;28;20056;-74
2023/02/20 06:08:14;;;;;;;20.92;11.63;;;;;;;12.83;100.00;101914.25;2092838;28;20041;-74
2023/02/20 06:09:35;;;;;;;13.70;9.25;;;;;;;12.85;100.00;101920.47;2083846;28;20049;-74
2023/02/20 06:10:58;;;;;;;16.23;9.95;;;;;;;12.89;100.00;101919.69;2091889;28;20040;-74
2023/02/20 06:12:20;;;;;;;16.40;10.57;;;;;;;12.93;100.00;101922.44;2084234;28;20053;-74
2023/02/20 06:13:42;;;;;;;17.75;11.40;;;;;;;12.98;100.00;101917.28;2095775;28;20036;-74
2023/02/20 06:15:09;;;;;;;24.10;17.77;;;;;;;13.04;100.00;101914.78;2102707;28;20055;-74
2023/02/20 06:16:32;;;;;;;22.23;15.70;;;;;;;13.09;100.00;101921.06;2095389;28;20393;-74
2023/02/20 06:17:55;;;;;;;21.17;15.30;;;;;;;13.15;100.00;101923.91;2099595;28;20131;-74
2023/02/20 06:19:21;;;;;;;22.80;18.60;;;;;;;13.22;100.00;101912.59;2094736;28;20079;-74
2023/02/20 06:20:43;;;;;;;27.65;19.98;;;;;;;13.28;100.00;101918.03;2100619;28;20051;-74
2023/02/20 06:22:06;;;;;;;25.77;21.45;;;;;;;13.36;100.00;101916.44;2092865;28;20061;-74
2023/02/20 06:23:28;;;;;;;26.00;22.33;;;;;;;13.43;100.00;101917.47;2092884;28;20047;-75
2023/02/20 06:24:51;;;;;;;32.38;24.25;;;;;;;13.48;100.00;101914.06;2086954;28;20118;-74
2023/02/20 06:26:14;;;;;;;29.77;20.67;;;;;;;13.56;100.00;101915.13;2092396;28;20052;-73
2023/02/20 06:27:39;;;;;;;26.85;20.75;;;;;;;13.62;100.00;101914.38;2100277;28;20051;-74
2023/02/20 06:29:01;;;;;;;24.83;18.70;;;;;;;13.69;100.00;101920.72;2097589;28;20074;-74
2023/02/20 06:30:25;;;;;;;24.95;18.17;;;;;;;13.72;100.00;101920.78;2088214;28;20048;-74
2023/02/20 06:31:48;;;;;;;24.17;15.82;;;;;;;13.76;100.00;101918.22;2084508;28;20049;-74
2023/02/20 06:33:11;;;;;;;17.95;14.88;;;;;;;13.77;100.00;101927.97;2094733;28;20045;-74
2023/02/20 06:34:33;;;;;;;17.17;13.20;;;;;;;13.82;100.00;101920.09;2097845;28;20037;-73
2023/02/20 06:35:55;;;;;;;22.25;13.57;;;;;;;13.87;100.00;101921.09;2095018;28;20059;-75
2023/02/20 06:37:18;;;;;;;20.25;13.30;;;;;;;13.93;100.00;101910.59;2091366;28;20044;-75
2023/02/20 06:38:40;;;;;;;20.90;15.15;;;;;;;14.01;100.00;101911.66;2102963;28;20698;-74
2023/02/20 06:40:04;;;;;;;20.42;13.77;;;;;;;14.08;100.00;101910.91;2097782;28;20055;-74
2023/02/20 06:41:26;;;;;;;18.48;12.88;;;;;;;14.14;100.00;101911.03;2092665;28;20060;-74
2023/02/20 06:42:49;;;;;;;18.08;11.73;;;;;;;14.20;100.00;101913.81;2099895;28;20052;-74